Station Historical Data
Daily Summary for February 9, 2012 Units:  English    Metric   Both
« Previous Day
Next Day »
Daily Weekly Monthly Yearly Custom
  High: Low: Average:
Temperature: 42.5 °F 29.2 °F 35.7 °F
Dew Point: 31.2 °F 26.8 °F 29.1 °F
Humidity: 92% 62% 77%
Wind Speed: 11.0mph 0.0mph 3mph
Wind Gust: 13.0mph - -
Wind- - SSE
Pressure: 30.36 in 30.23 in -
Precipitation: 0.00 in    
Historical Graphs
 
 
Tabular Data for February 9, 2012
Time Temperature Dew Point Pressure Wind Wind Speed Wind Gust Humidity Rainfall Rate (Hourly) Conditions
00:00 36.3 °F 31.0 °F 30.33 in NNE 8.0 mph 8.0 mph 81% 0.00 in
00:06 36.3 °F 31.0 °F 30.33 in North 3.0 mph 7.0 mph 81% 0.00 in
00:11 36.3 °F 31.0 °F 30.33 in NW 4.0 mph 6.0 mph 81% 0.00 in
00:16 36.3 °F 30.7 °F 30.33 in NNE 4.0 mph 6.0 mph 80% 0.00 in
00:21 36.3 °F 30.7 °F 30.33 in North 3.0 mph 6.0 mph 80% 0.00 in
00:26 36.3 °F 30.7 °F 30.32 in North 3.0 mph 6.0 mph 80% 0.00 in
00:31 36.3 °F 30.7 °F 30.32 in North 5.0 mph 6.0 mph 80% 0.00 in
00:36 36.2 °F 30.6 °F 30.32 in NNW 3.0 mph 7.0 mph 80% 0.00 in
00:41 36.1 °F 30.5 °F 30.32 in NNW 4.0 mph 6.0 mph 80% 0.00 in
00:46 35.8 °F 29.6 °F 30.32 in NNW 2.0 mph 7.0 mph 78% 0.00 in
00:51 35.3 °F 29.1 °F 30.32 in North 2.0 mph 2.0 mph 78% 0.00 in
00:56 35.1 °F 28.9 °F 30.32 in NNE 4.0 mph 4.0 mph 78% 0.00 in
01:01 34.9 °F 29.1 °F 30.33 in NNW 2.0 mph 4.0 mph 79% 0.00 in
01:06 34.7 °F 28.9 °F 30.33 in North 1.0 mph 2.0 mph 79% 0.00 in
01:11 34.6 °F 28.8 °F 30.33 in NNW 1.0 mph 3.0 mph 79% 0.00 in
01:16 34.5 °F 29.0 °F 30.33 in NNW 3.0 mph 4.0 mph 80% 0.00 in
01:21 34.6 °F 29.1 °F 30.33 in NNW 3.0 mph 3.0 mph 80% 0.00 in
01:26 34.6 °F 29.4 °F 30.34 in NW 2.0 mph 4.0 mph 81% 0.00 in
01:31 34.7 °F 29.5 °F 30.34 in NNW 3.0 mph 5.0 mph 81% 0.00 in
01:36 34.7 °F 29.5 °F 30.34 in NNW 2.0 mph 4.0 mph 81% 0.00 in
01:41 34.5 °F 29.3 °F 30.34 in North 1.0 mph 3.0 mph 81% 0.00 in
01:46 34.4 °F 29.5 °F 30.34 in North 2.0 mph 2.0 mph 82% 0.00 in
01:51 34.3 °F 29.4 °F 30.33 in North 1.0 mph 2.0 mph 82% 0.00 in
01:56 34.2 °F 29.6 °F 30.33 in North 1.0 mph 3.0 mph 83% 0.00 in
02:01 34.0 °F 29.4 °F 30.34 in NW 1.0 mph 1.0 mph 83% 0.00 in
02:06 34.0 °F 29.4 °F 30.34 in NNW 2.0 mph 2.0 mph 83% 0.00 in
02:11 34.2 °F 29.6 °F 30.34 in NW 1.0 mph 3.0 mph 83% 0.00 in
02:16 34.3 °F 29.7 °F 30.34 in NNW 2.0 mph 4.0 mph 83% 0.00 in
02:21 34.4 °F 29.8 °F 30.34 in NNW 2.0 mph 3.0 mph 83% 0.00 in
02:26 34.4 °F 29.8 °F 30.34 in NNW 2.0 mph 4.0 mph 83% 0.00 in
02:31 34.5 °F 29.9 °F 30.34 in North 4.0 mph 4.0 mph 83% 0.00 in
02:36 34.5 °F 29.9 °F 30.34 in NNW 3.0 mph 4.0 mph 83% 0.00 in
02:41 34.5 °F 29.9 °F 30.34 in NNW 4.0 mph 4.0 mph 83% 0.00 in
02:46 34.5 °F 29.9 °F 30.34 in NW 3.0 mph 5.0 mph 83% 0.00 in
02:51 34.5 °F 29.6 °F 30.34 in NNW 2.0 mph 5.0 mph 82% 0.00 in
02:56 34.5 °F 29.6 °F 30.34 in NW 3.0 mph 5.0 mph 82% 0.00 in
03:01 34.4 °F 29.8 °F 30.34 in NNW 4.0 mph 5.0 mph 83% 0.00 in
03:06 34.4 °F 29.8 °F 30.33 in NW 2.0 mph 5.0 mph 83% 0.00 in
03:11 34.3 °F 29.7 °F 30.33 in NW 2.0 mph 6.0 mph 83% 0.00 in
03:16 34.3 °F 29.7 °F 30.33 in NNW 2.0 mph 6.0 mph 83% 0.00 in
03:21 34.2 °F 29.9 °F 30.33 in North 3.0 mph 5.0 mph 84% 0.00 in
03:26 34.1 °F 29.8 °F 30.33 in NNW 2.0 mph 5.0 mph 84% 0.00 in
03:31 34.0 °F 29.7 °F 30.33 in NNW 1.0 mph 3.0 mph 84% 0.00 in
03:36 34.0 °F 29.7 °F 30.33 in North 5.0 mph 6.0 mph 84% 0.00 in
03:41 34.0 °F 29.7 °F 30.33 in NNW 2.0 mph 4.0 mph 84% 0.00 in
03:46 34.0 °F 29.7 °F 30.33 in NW 3.0 mph 8.0 mph 84% 0.00 in
03:47 34.0 °F 29.7 °F 30.33 in North 5.0 mph 8.0 mph 84% 0.00 in
03:52 33.9 °F 29.3 °F 30.33 in NNW 5.0 mph 6.0 mph 83% 0.00 in
03:57 33.8 °F 29.2 °F 30.33 in North 5.0 mph 7.0 mph 83% 0.00 in
04:02 33.5 °F 28.9 °F 30.33 in North 4.0 mph 5.0 mph 83% 0.00 in
04:07 33.2 °F 28.6 °F 30.34 in NNW 5.0 mph 7.0 mph 83% 0.00 in
04:12 33.0 °F 28.4 °F 30.34 in North 3.0 mph 7.0 mph 83% 0.00 in
04:17 32.7 °F 28.4 °F 30.34 in NNW 2.0 mph 4.0 mph 84% 0.00 in
04:22 32.4 °F 28.1 °F 30.34 in NNW 2.0 mph 2.0 mph 84% 0.00 in
04:27 32.2 °F 27.9 °F 30.34 in NNW 3.0 mph 4.0 mph 84% 0.00 in
04:32 32.0 °F 28.0 °F 30.34 in NNW 2.0 mph 3.0 mph 85% 0.00 in
04:37 31.9 °F 27.9 °F 30.34 in NNW 2.0 mph 3.0 mph 85% 0.00 in
04:42 31.8 °F 27.8 °F 30.34 in NW 1.0 mph 3.0 mph 85% 0.00 in
04:48 31.6 °F 27.6 °F 30.34 in NNW 2.0 mph 3.0 mph 85% 0.00 in
04:53 31.6 °F 27.9 °F 30.33 in North 3.0 mph 3.0 mph 86% 0.00 in
04:58 31.4 °F 27.7 °F 30.33 in North 5.0 mph 5.0 mph 86% 0.00 in
05:03 31.2 °F 27.5 °F 30.33 in NNW 3.0 mph 4.0 mph 86% 0.00 in
05:08 31.0 °F 27.3 °F 30.33 in NNW 2.0 mph 4.0 mph 86% 0.00 in
05:13 30.9 °F 27.5 °F 30.33 in NNW 1.0 mph 4.0 mph 87% 0.00 in
05:18 30.8 °F 27.4 °F 30.33 in NNW 3.0 mph 4.0 mph 87% 0.00 in
05:23 30.8 °F 27.4 °F 30.33 in NNW 4.0 mph 5.0 mph 87% 0.00 in
05:28 30.8 °F 27.7 °F 30.33 in NNW 3.0 mph 3.0 mph 88% 0.00 in
05:33 30.8 °F 27.7 °F 30.32 in NNW 6.0 mph 6.0 mph 88% 0.00 in
05:38 30.9 °F 27.8 °F 30.32 in NNW 4.0 mph 6.0 mph 88% 0.00 in
05:43 31.0 °F 27.9 °F 30.32 in NNE 2.0 mph 4.0 mph 88% 0.00 in
05:48 31.1 °F 28.0 °F 30.32 in North 4.0 mph 6.0 mph 88% 0.00 in
05:53 31.2 °F 28.1 °F 30.32 in NNE 4.0 mph 6.0 mph 88% 0.00 in
05:58 31.4 °F 28.3 °F 30.33 in NNE 5.0 mph 7.0 mph 88% 0.00 in
06:03 31.4 °F 28.3 °F 30.33 in North 4.0 mph 6.0 mph 88% 0.00 in
06:08 31.6 °F 28.5 °F 30.33 in NNE 4.0 mph 6.0 mph 88% 0.00 in
06:13 31.7 °F 28.6 °F 30.33 in NNE 4.0 mph 7.0 mph 88% 0.00 in
06:18 31.8 °F 28.7 °F 30.33 in NNW 4.0 mph 6.0 mph 88% 0.00 in
06:23 31.8 °F 28.7 °F 30.33 in NNE 4.0 mph 7.0 mph 88% 0.00 in
06:28 31.9 °F 28.8 °F 30.33 in NNE 3.0 mph 6.0 mph 88% 0.00 in
06:33 32.0 °F 28.6 °F 30.33 in North 3.0 mph 4.0 mph 87% 0.00 in
06:38 32.0 °F 28.6 °F 30.33 in NNE 3.0 mph 4.0 mph 87% 0.00 in
06:43 32.0 °F 28.6 °F 30.33 in NW 2.0 mph 5.0 mph 87% 0.00 in
06:48 32.0 °F 28.6 °F 30.33 in NNW 5.0 mph 5.0 mph 87% 0.00 in
06:53 31.8 °F 28.4 °F 30.33 in NNW 4.0 mph 4.0 mph 87% 0.00 in
06:58 31.6 °F 28.2 °F 30.33 in NNE 2.0 mph 4.0 mph 87% 0.00 in
07:03 31.3 °F 27.9 °F 30.33 in North 3.0 mph 3.0 mph 87% 0.00 in
07:08 31.0 °F 27.9 °F 30.33 in North 2.0 mph 4.0 mph 88% 0.00 in
07:13 30.8 °F 27.7 °F 30.33 in North 2.0 mph 4.0 mph 88% 0.00 in
07:18 30.5 °F 27.4 °F 30.33 in North 2.0 mph 5.0 mph 88% 0.00 in
07:23 30.3 °F 27.5 °F 30.33 in North 2.0 mph 3.0 mph 89% 0.00 in
07:28 30.1 °F 27.3 °F 30.34 in North 1.0 mph 2.0 mph 89% 0.00 in
07:33 29.9 °F 27.3 °F 30.34 in NNW 2.0 mph 2.0 mph 90% 0.00 in
07:38 29.8 °F 27.2 °F 30.34 in North 3.0 mph 3.0 mph 90% 0.00 in
07:43 29.7 °F 27.1 °F 30.34 in North 2.0 mph 3.0 mph 90% 0.00 in
07:48 29.5 °F 26.9 °F 30.34 in North 2.0 mph 3.0 mph 90% 0.00 in
07:53 29.3 °F 27.0 °F 30.34 in North 1.0 mph 1.0 mph 91% 0.00 in
07:58 29.2 °F 26.9 °F 30.34 in North 1.0 mph 2.0 mph 91% 0.00 in
08:03 29.2 °F 26.9 °F 30.35 in North 1.0 mph 1.0 mph 91% 0.00 in
08:08 29.3 °F 27.0 °F 30.35 in North 2.0 mph 2.0 mph 91% 0.00 in
08:14 29.6 °F 27.6 °F 30.35 in North 1.0 mph 3.0 mph 92% 0.00 in
08:19 29.8 °F 27.5 °F 30.35 in North 2.0 mph 4.0 mph 91% 0.00 in
08:24 30.0 °F 27.7 °F 30.35 in North 2.0 mph 3.0 mph 91% 0.00 in
08:29 30.3 °F 28.0 °F 30.35 in North 2.0 mph 3.0 mph 91% 0.00 in
08:34 30.6 °F 28.3 °F 30.35 in NNW 3.0 mph 5.0 mph 91% 0.00 in
08:39 30.8 °F 28.2 °F 30.35 in NNE 4.0 mph 5.0 mph 90% 0.00 in
08:44 31.1 °F 28.5 °F 30.35 in NNE 3.0 mph 6.0 mph 90% 0.00 in
08:49 31.4 °F 28.8 °F 30.35 in North 4.0 mph 7.0 mph 90% 0.00 in
08:54 31.7 °F 29.1 °F 30.35 in North 4.0 mph 6.0 mph 90% 0.00 in
08:59 32.1 °F 29.2 °F 30.35 in North 3.0 mph 6.0 mph 89% 0.00 in
09:04 32.5 °F 29.6 °F 30.35 in NE 3.0 mph 4.0 mph 89% 0.00 in
09:09 32.9 °F 29.7 °F 30.35 in North 5.0 mph 6.0 mph 88% 0.00 in
09:14 33.2 °F 30.0 °F 30.35 in North 6.0 mph 7.0 mph 88% 0.00 in
09:19 33.4 °F 30.0 °F 30.36 in North 5.0 mph 8.0 mph 87% 0.00 in
09:24 33.7 °F 30.0 °F 30.36 in NNE 6.0 mph 9.0 mph 86% 0.00 in
09:29 33.9 °F 29.9 °F 30.35 in NNE 11.0 mph 11.0 mph 85% 0.00 in
09:34 34.2 °F 30.2 °F 30.36 in North 8.0 mph 9.0 mph 85% 0.00 in
09:39 34.3 °F 30.3 °F 30.35 in North 8.0 mph 11.0 mph 85% 0.00 in
09:44 34.5 °F 30.5 °F 30.35 in NNE 5.0 mph 9.0 mph 85% 0.00 in
09:49 34.8 °F 30.2 °F 30.35 in North 5.0 mph 10.0 mph 83% 0.00 in
09:54 35.3 °F 31.0 °F 30.35 in North 6.0 mph 9.0 mph 84% 0.00 in
09:59 35.6 °F 31.0 °F 30.35 in North 6.0 mph 8.0 mph 83% 0.00 in
10:04 35.8 °F 30.9 °F 30.35 in North 7.0 mph 9.0 mph 82% 0.00 in
10:09 36.0 °F 30.4 °F 30.35 in NE 7.0 mph 10.0 mph 80% 0.00 in
10:14 35.9 °F 30.0 °F 30.35 in NE 8.0 mph 11.0 mph 79% 0.00 in
10:19 36.3 °F 30.1 °F 30.35 in NNE 3.0 mph 8.0 mph 78% 0.00 in
10:24 36.8 °F 30.9 °F 30.35 in NE 5.0 mph 8.0 mph 79% 0.00 in
10:29 36.5 °F 29.3 °F 30.35 in NNE 6.0 mph 10.0 mph 75% 0.00 in
10:34 36.5 °F 28.7 °F 30.36 in NNE 8.0 mph 11.0 mph 73% 0.00 in
10:39 37.2 °F 30.0 °F 30.35 in NE 4.0 mph 11.0 mph 75% 0.00 in
10:44 37.5 °F 30.3 °F 30.35 in NE 3.0 mph 7.0 mph 75% 0.00 in
10:49 37.3 °F 29.1 °F 30.35 in NE 4.0 mph 8.0 mph 72% 0.00 in
10:54 38.1 °F 30.6 °F 30.35 in NE 6.0 mph 13.0 mph 74% 0.00 in
10:59 38.3 °F 29.4 °F 30.35 in NNE 6.0 mph 11.0 mph 70% 0.00 in
11:04 38.7 °F 29.4 °F 30.35 in NE 3.0 mph 9.0 mph 69% 0.00 in
11:09 38.2 °F 28.9 °F 30.35 in ENE 6.0 mph 11.0 mph 69% 0.00 in
11:14 37.9 °F 29.4 °F 30.35 in NNW 5.0 mph 7.0 mph 71% 0.00 in
11:19 37.9 °F 29.0 °F 30.35 in NNE 7.0 mph 7.0 mph 70% 0.00 in
11:24 37.6 °F 28.7 °F 30.35 in NE 3.0 mph 7.0 mph 70% 0.00 in
11:30 37.9 °F 29.0 °F 30.36 in North 3.0 mph 6.0 mph 70% 0.00 in
11:35 38.3 °F 29.4 °F 30.35 in NE 5.0 mph 7.0 mph 70% 0.00 in
11:40 38.0 °F 28.8 °F 30.35 in NNE 4.0 mph 8.0 mph 69% 0.00 in
11:45 38.1 °F 29.2 °F 30.35 in North 3.0 mph 4.0 mph 70% 0.00 in
11:50 38.6 °F 30.0 °F 30.35 in NE 5.0 mph 6.0 mph 71% 0.00 in
11:55 38.8 °F 29.9 °F 30.34 in NE 4.0 mph 9.0 mph 70% 0.00 in
12:00 38.8 °F 29.5 °F 30.34 in North 4.0 mph 6.0 mph 69% 0.00 in
12:05 38.8 °F 29.9 °F 30.34 in North 4.0 mph 9.0 mph 70% 0.00 in
12:10 38.9 °F 30.0 °F 30.34 in NE 6.0 mph 7.0 mph 70% 0.00 in
12:15 38.7 °F 29.4 °F 30.33 in NNE 4.0 mph 5.0 mph 69% 0.00 in
12:20 38.8 °F 28.8 °F 30.33 in SW 1.0 mph 3.0 mph 67% 0.00 in
12:25 39.9 °F 29.9 °F 30.33 in NE 2.0 mph 2.0 mph 67% 0.00 in
12:30 39.7 °F 29.3 °F 30.33 in NW 3.0 mph 6.0 mph 66% 0.00 in
12:35 39.7 °F 29.7 °F 30.33 in NW 4.0 mph 4.0 mph 67% 0.00 in
12:40 39.8 °F 29.4 °F 30.33 in NNE 4.0 mph 6.0 mph 66% 0.00 in
12:45 39.5 °F 29.1 °F 30.33 in NE 5.0 mph 8.0 mph 66% 0.00 in
12:46 39.4 °F 29.4 °F 30.33 in NE 2.0 mph 8.0 mph 67% 0.00 in
12:51 39.6 °F 29.6 °F 30.32 in NE 3.0 mph 8.0 mph 67% 0.00 in
12:56 39.5 °F 29.5 °F 30.32 in NNW 3.0 mph 7.0 mph 67% 0.00 in
13:01 39.5 °F 29.5 °F 30.31 in NE 3.0 mph 7.0 mph 67% 0.00 in
13:06 39.3 °F 28.5 °F 30.31 in NNW 3.0 mph 6.0 mph 65% 0.00 in
13:11 39.9 °F 29.9 °F 30.30 in ENE 2.0 mph 3.0 mph 67% 0.00 in
13:16 40.5 °F 30.4 °F 30.30 in ENE 4.0 mph 6.0 mph 67% 0.00 in
13:21 40.4 °F 29.2 °F 30.30 in East 4.0 mph 7.0 mph 64% 0.00 in
13:26 40.7 °F 29.9 °F 30.30 in East 4.0 mph 8.0 mph 65% 0.00 in
13:31 40.6 °F 29.8 °F 30.30 in NNE 3.0 mph 4.0 mph 65% 0.00 in
13:36 40.6 °F 29.8 °F 30.29 in ESE 4.0 mph 6.0 mph 65% 0.00 in
13:41 40.7 °F 29.9 °F 30.29 in East 4.0 mph 5.0 mph 65% 0.00 in
13:46 40.5 °F 30.0 °F 30.29 in NNE 4.0 mph 5.0 mph 66% 0.00 in
13:51 40.3 °F 30.2 °F 30.29 in NNW 3.0 mph 8.0 mph 67% 0.00 in
13:56 40.3 °F 29.9 °F 30.29 in NNW 3.0 mph 7.0 mph 66% 0.00 in
14:01 40.3 °F 30.2 °F 30.28 in NNW 3.0 mph 5.0 mph 67% 0.00 in
14:06 40.4 °F 30.0 °F 30.28 in NE 4.0 mph 8.0 mph 66% 0.00 in
14:11 40.4 °F 30.3 °F 30.28 in ENE 6.0 mph 6.0 mph 67% 0.00 in
14:16 40.2 °F 30.1 °F 30.27 in NE 5.0 mph 6.0 mph 67% 0.00 in
14:21 40.2 °F 30.1 °F 30.27 in ENE 4.0 mph 6.0 mph 67% 0.00 in
14:26 40.5 °F 30.0 °F 30.27 in NE 2.0 mph 6.0 mph 66% 0.00 in
14:31 40.9 °F 31.2 °F 30.27 in ESE 2.0 mph 5.0 mph 68% 0.00 in
14:36 41.1 °F 30.2 °F 30.27 in NNE 3.0 mph 5.0 mph 65% 0.00 in
14:42 41.5 °F 30.6 °F 30.27 in Calm   1.0 mph 65% 0.00 in
14:47 42.1 °F 30.4 °F 30.27 in NNW 1.0 mph 3.0 mph 63% 0.00 in
14:52 42.5 °F 30.4 °F 30.26 in NE 4.0 mph 5.0 mph 62% 0.00 in
14:57 42.0 °F 29.9 °F 30.26 in NW 2.0 mph 3.0 mph 62% 0.00 in
15:02 42.2 °F 30.5 °F 30.26 in ENE 4.0 mph 8.0 mph 63% 0.00 in
15:07 42.0 °F 30.7 °F 30.26 in NNW 3.0 mph 6.0 mph 64% 0.00 in
15:12 41.6 °F 30.7 °F 30.26 in North 3.0 mph 6.0 mph 65% 0.00 in
15:17 41.5 °F 30.2 °F 30.26 in ESE 1.0 mph 3.0 mph 64% 0.00 in
15:22 41.6 °F 30.3 °F 30.26 in North 4.0 mph 4.0 mph 64% 0.00 in
15:27 41.4 °F 29.8 °F 30.26 in NNW 1.0 mph 5.0 mph 63% 0.00 in
15:32 41.6 °F 30.3 °F 30.26 in NE 2.0 mph 4.0 mph 64% 0.00 in
15:37 41.6 °F 30.3 °F 30.25 in ENE 1.0 mph 8.0 mph 64% 0.00 in
15:42 41.7 °F 30.8 °F 30.25 in NE 4.0 mph 9.0 mph 65% 0.00 in
15:47 41.5 °F 30.2 °F 30.25 in NE 3.0 mph 6.0 mph 64% 0.00 in
15:52 41.3 °F 30.8 °F 30.26 in NNE 4.0 mph 8.0 mph 66% 0.00 in
15:57 41.1 °F 30.2 °F 30.25 in NNE 4.0 mph 9.0 mph 65% 0.00 in
16:02 41.0 °F 30.5 °F 30.25 in NE 7.0 mph 7.0 mph 66% 0.00 in
16:07 41.0 °F 30.1 °F 30.25 in ENE 3.0 mph 6.0 mph 65% 0.00 in
16:12 41.3 °F 30.4 °F 30.25 in NNE 6.0 mph 7.0 mph 65% 0.00 in
16:17 41.6 °F 30.7 °F 30.25 in NNE 2.0 mph 8.0 mph 65% 0.00 in
16:22 41.6 °F 30.0 °F 30.25 in ENE 3.0 mph 8.0 mph 63% 0.00 in
16:27 41.7 °F 30.4 °F 30.25 in ENE 1.0 mph 4.0 mph 64% 0.00 in
16:32 42.0 °F 31.1 °F 30.25 in NE 5.0 mph 6.0 mph 65% 0.00 in
16:37 42.1 °F 31.2 °F 30.25 in NW 2.0 mph 5.0 mph 65% 0.00 in
16:42 42.0 °F 30.3 °F 30.25 in NNE 5.0 mph 5.0 mph 63% 0.00 in
16:47 42.0 °F 30.3 °F 30.25 in NNE 2.0 mph 3.0 mph 63% 0.00 in
16:52 41.9 °F 30.6 °F 30.25 in NNE 4.0 mph 5.0 mph 64% 0.00 in
16:57 41.9 °F 30.2 °F 30.25 in NNE 2.0 mph 6.0 mph 63% 0.00 in
17:02 41.9 °F 30.2 °F 30.25 in NNE 6.0 mph 7.0 mph 63% 0.00 in
17:07 41.9 °F 30.6 °F 30.25 in NE 2.0 mph 7.0 mph 64% 0.00 in
17:12 41.6 °F 30.3 °F 30.25 in NNE 7.0 mph 8.0 mph 64% 0.00 in
17:17 41.4 °F 30.1 °F 30.25 in NE 3.0 mph 7.0 mph 64% 0.00 in
17:22 41.5 °F 30.6 °F 30.25 in NE 2.0 mph 5.0 mph 65% 0.00 in
17:27 41.4 °F 30.1 °F 30.25 in NNE 3.0 mph 4.0 mph 64% 0.00 in
17:32 41.2 °F 30.0 °F 30.25 in NNE 5.0 mph 7.0 mph 64% 0.00 in
17:37 41.1 °F 30.2 °F 30.25 in NE 5.0 mph 5.0 mph 65% 0.00 in
17:43 40.9 °F 29.7 °F 30.25 in NNE 2.0 mph 4.0 mph 64% 0.00 in
17:48 40.9 °F 30.1 °F 30.25 in NNE 2.0 mph 4.0 mph 65% 0.00 in
17:53 40.8 °F 29.6 °F 30.25 in NE 1.0 mph 4.0 mph 64% 0.00 in
17:58 40.7 °F 29.5 °F 30.24 in ENE 2.0 mph 3.0 mph 64% 0.00 in
18:03 40.5 °F 29.7 °F 30.24 in NE 4.0 mph 5.0 mph 65% 0.00 in
18:08 40.1 °F 29.7 °F 30.24 in NE 4.0 mph 6.0 mph 66% 0.00 in
18:13 39.9 °F 29.9 °F 30.24 in NE 3.0 mph 4.0 mph 67% 0.00 in
18:18 39.6 °F 29.6 °F 30.24 in ENE 3.0 mph 3.0 mph 67% 0.00 in
18:23 39.4 °F 29.4 °F 30.24 in ENE 2.0 mph 4.0 mph 67% 0.00 in
18:28 39.0 °F 29.4 °F 30.24 in NE 2.0 mph 3.0 mph 68% 0.00 in
18:33 38.7 °F 29.4 °F 30.24 in NE 2.0 mph 4.0 mph 69% 0.00 in
18:38 38.4 °F 29.1 °F 30.24 in NE 2.0 mph 3.0 mph 69% 0.00 in
18:43 38.1 °F 28.8 °F 30.24 in NE 2.0 mph 3.0 mph 69% 0.00 in
18:48 37.9 °F 29.0 °F 30.24 in NE 1.0 mph 2.0 mph 70% 0.00 in
18:53 37.7 °F 28.8 °F 30.24 in Calm   1.0 mph 70% 0.00 in
18:58 37.5 °F 29.0 °F 30.24 in Calm   1.0 mph 71% 0.00 in
19:03 37.3 °F 28.8 °F 30.24 in East 1.0 mph 1.0 mph 71% 0.00 in
19:08 37.2 °F 28.7 °F 30.25 in Calm   1.0 mph 71% 0.00 in
19:13 37.1 °F 28.6 °F 30.25 in Calm   1.0 mph 71% 0.00 in
19:18 37.1 °F 28.6 °F 30.25 in East 1.0 mph 1.0 mph 71% 0.00 in
19:23 37.1 °F 28.6 °F 30.25 in East 1.0 mph 1.0 mph 71% 0.00 in
19:28 36.9 °F 28.7 °F 30.25 in ENE 1.0 mph 2.0 mph 72% 0.00 in
19:33 36.7 °F 28.5 °F 30.25 in East 1.0 mph 2.0 mph 72% 0.00 in
19:38 36.6 °F 28.8 °F 30.25 in East 1.0 mph 3.0 mph 73% 0.00 in
19:43 36.2 °F 28.7 °F 30.25 in ESE 1.0 mph 1.0 mph 74% 0.00 in
19:48 35.9 °F 28.8 °F 30.25 in East 1.0 mph 2.0 mph 75% 0.00 in
19:53 35.8 °F 29.0 °F 30.24 in East 1.0 mph 2.0 mph 76% 0.00 in
19:58 35.8 °F 29.0 °F 30.25 in East 1.0 mph 1.0 mph 76% 0.00 in
20:03 35.7 °F 28.9 °F 30.25 in East 1.0 mph 2.0 mph 76% 0.00 in
20:09 35.6 °F 28.8 °F 30.25 in ESE 1.0 mph 2.0 mph 76% 0.00 in
20:14 35.6 °F 29.1 °F 30.25 in East 2.0 mph 2.0 mph 77% 0.00 in
20:19 35.5 °F 29.0 °F 30.24 in East 2.0 mph 2.0 mph 77% 0.00 in
20:24 35.4 °F 28.9 °F 30.24 in ESE 3.0 mph 3.0 mph 77% 0.00 in
20:29 35.3 °F 28.8 °F 30.24 in ESE 3.0 mph 4.0 mph 77% 0.00 in
20:34 35.3 °F 28.8 °F 30.24 in ESE 3.0 mph 3.0 mph 77% 0.00 in
20:39 35.0 °F 28.5 °F 30.24 in East 1.0 mph 2.0 mph 77% 0.00 in
20:44 34.8 °F 28.6 °F 30.24 in ESE 1.0 mph 2.0 mph 78% 0.00 in
20:49 34.6 °F 28.5 °F 30.24 in ESE 2.0 mph 2.0 mph 78% 0.00 in
20:54 34.3 °F 28.5 °F 30.24 in ESE 2.0 mph 3.0 mph 79% 0.00 in
20:59 34.1 °F 28.6 °F 30.23 in SE 2.0 mph 3.0 mph 80% 0.00 in
21:04 34.1 °F 28.6 °F 30.24 in ESE 3.0 mph 3.0 mph 80% 0.00 in
21:09 34.2 °F 28.7 °F 30.24 in ESE 3.0 mph 3.0 mph 80% 0.00 in
21:14 34.2 °F 28.7 °F 30.24 in ESE 2.0 mph 2.0 mph 80% 0.00 in
21:19 33.9 °F 28.4 °F 30.24 in ESE 1.0 mph 1.0 mph 80% 0.00 in
21:24 33.8 °F 28.3 °F 30.24 in Calm     80% 0.00 in
21:29 33.5 °F 28.0 °F 30.24 in Calm     80% 0.00 in
21:34 32.9 °F 27.7 °F 30.24 in Calm     81% 0.00 in
21:39 32.4 °F 27.5 °F 30.24 in Calm     82% 0.00 in
21:44 31.6 °F 27.3 °F 30.24 in WNW 1.0 mph 5.0 mph 84% 0.00 in
21:49 31.1 °F 27.4 °F 30.24 in WNW 6.0 mph 6.0 mph 86% 0.00 in
21:54 31.6 °F 27.6 °F 30.24 in NW 2.0 mph 3.0 mph 85% 0.00 in
21:59 31.8 °F 28.1 °F 30.24 in NNW 1.0 mph 1.0 mph 86% 0.00 in
22:04 32.0 °F 28.0 °F 30.24 in NNW 1.0 mph 3.0 mph 85% 0.00 in
22:09 32.2 °F 28.2 °F 30.24 in NNW 1.0 mph 1.0 mph 85% 0.00 in
22:14 32.4 °F 28.1 °F 30.24 in Calm   2.0 mph 84% 0.00 in
22:19 32.4 °F 28.1 °F 30.24 in Calm   1.0 mph 84% 0.00 in
22:24 32.5 °F 28.2 °F 30.24 in North 1.0 mph 2.0 mph 84% 0.00 in
22:29 32.7 °F 28.4 °F 30.24 in Calm   1.0 mph 84% 0.00 in
22:34 32.7 °F 28.1 °F 30.24 in NNW 1.0 mph 1.0 mph 83% 0.00 in
22:39 32.6 °F 28.0 °F 30.24 in North 1.0 mph 2.0 mph 83% 0.00 in
22:44 32.3 °F 27.7 °F 30.24 in North 1.0 mph 2.0 mph 83% 0.00 in
22:49 32.2 °F 27.9 °F 30.24 in NNW 3.0 mph 3.0 mph 84% 0.00 in
22:54 32.1 °F 27.8 °F 30.24 in North 4.0 mph 4.0 mph 84% 0.00 in
22:59 32.0 °F 27.4 °F 30.24 in NNW 2.0 mph 6.0 mph 83% 0.00 in
23:04 31.9 °F 27.3 °F 30.24 in North 3.0 mph 5.0 mph 83% 0.00 in
23:09 32.0 °F 27.4 °F 30.24 in North 2.0 mph 3.0 mph 83% 0.00 in
23:15 31.9 °F 27.3 °F 30.24 in NNE 1.0 mph 3.0 mph 83% 0.00 in
23:19 31.8 °F 27.2 °F 30.24 in North 2.0 mph 4.0 mph 83% 0.00 in
23:24 31.7 °F 27.1 °F 30.24 in North 3.0 mph 3.0 mph 83% 0.00 in
23:29 31.6 °F 27.0 °F 30.23 in North 3.0 mph 3.0 mph 83% 0.00 in
23:34 31.6 °F 27.0 °F 30.23 in North 3.0 mph 5.0 mph 83% 0.00 in
23:40 31.6 °F 26.8 °F 30.23 in NNE 5.0 mph 5.0 mph 82% 0.00 in
23:45 31.6 °F 26.8 °F 30.23 in NNE 4.0 mph 4.0 mph 82% 0.00 in
23:50 31.6 °F 26.8 °F 30.23 in NNE 5.0 mph 5.0 mph 82% 0.00 in
23:55 31.6 °F 26.8 °F 30.23 in NNE 3.0 mph 4.0 mph 82% 0.00 in
Compliments of Weather Underground